Time;durP1;ratioP1;P1;durP2;ratioP2;P2;SDS_P1;SDS_P2;PMS_P1;PMS_P2;Temp;Humidity;BMP_temperature;BMP_pressure;BME280_temperature;BME280_humidity;BME280_pressure;Samples;Min_cycle;Max_cycle;Signal;HPM_P1;HPM_P2
2023/10/15 00:02:04;;;;;;;27.20;4.53;;;;;;;;;;5110228;28;20028;-42
2023/10/15 00:04:33;;;;;;;14.35;3.47;;;;;;;;;;5113592;28;20108;-42
2023/10/15 00:07:05;;;;;;;12.60;3.90;;;;;;;;;;5110928;28;20031;-42
2023/10/15 00:09:33;;;;;;;15.02;3.38;;;;;;;;;;5113516;28;20028;-43
2023/10/15 00:12:00;;;;;;;13.82;3.05;;;;;;;;;;5112807;28;20032;-42
2023/10/15 00:14:27;;;;;;;21.20;3.58;;;;;;;;;;5113049;28;20046;-47
2023/10/15 00:16:54;;;;;;;13.48;3.42;;;;;;;;;;5111180;28;20041;-42
2023/10/15 00:19:22;;;;;;;14.68;3.78;;;;;;;;;;5103795;28;20028;-42
2023/10/15 00:21:49;;;;;;;16.63;3.25;;;;;;;;;;5112589;28;20088;-42
2023/10/15 00:24:16;;;;;;;14.43;3.28;;;;;;;;;;5103935;28;20020;-43
2023/10/15 00:26:44;;;;;;;19.52;3.15;;;;;;;;;;5112750;28;20134;-42
2023/10/15 00:29:12;;;;;;;17.98;3.45;;;;;;;;;;5113249;28;20069;-42
2023/10/15 00:31:41;;;;;;;18.23;3.60;;;;;;;;;;5113144;28;20043;-42
2023/10/15 00:34:12;;;;;;;16.55;2.70;;;;;;;;;;5105582;28;20126;-43
2023/10/15 00:36:40;;;;;;;11.20;3.00;;;;;;;;;;5112155;28;20074;-43
2023/10/15 00:39:12;;;;;;;15.68;3.25;;;;;;;;;;5111800;28;20027;-42
2023/10/15 00:41:45;;;;;;;14.45;3.00;;;;;;;;;;5111843;28;20673;-43
2023/10/15 00:44:12;;;;;;;14.38;3.75;;;;;;;;;;5108304;28;20031;-43
2023/10/15 00:46:39;;;;;;;16.48;2.90;;;;;;;;;;5112348;28;20164;-45
2023/10/15 00:49:13;;;;;;;15.98;2.65;;;;;;;;;;5101794;28;20359;-44
2023/10/15 00:51:44;;;;;;;18.30;3.03;;;;;;;;;;5112230;28;20390;-43
2023/10/15 00:54:15;;;;;;;20.90;3.05;;;;;;;;;;5102770;28;20050;-41
2023/10/15 00:56:46;;;;;;;15.52;3.22;;;;;;;;;;5112266;28;20035;-42
2023/10/15 01:01:54;;;;;;;18.95;3.13;;;;;;;;;;5112194;28;20464;-41
2023/10/15 01:04:26;;;;;;;22.83;3.22;;;;;;;;;;5108858;28;20049;-41
2023/10/15 01:06:55;;;;;;;16.48;2.88;;;;;;;;;;5110298;28;20034;-42
2023/10/15 01:09:31;;;;;;;19.95;2.78;;;;;;;;;;5105020;28;20505;-43
2023/10/15 01:12:18;;;;;;;26.13;3.53;;;;;;;;;;5103571;28;20039;-41
2023/10/15 01:14:45;;;;;;;23.13;3.95;;;;;;;;;;5111181;27;20164;-43
2023/10/15 01:17:12;;;;;;;23.10;3.28;;;;;;;;;;5110757;28;20044;-41
2023/10/15 01:19:39;;;;;;;28.15;3.80;;;;;;;;;;5100855;28;20039;-45
2023/10/15 01:22:10;;;;;;;23.40;3.58;;;;;;;;;;5112031;28;20028;-41
2023/10/15 01:24:38;;;;;;;20.50;3.30;;;;;;;;;;5111948;28;20073;-42
2023/10/15 01:27:09;;;;;;;20.90;3.40;;;;;;;;;;5111151;28;20446;-44
2023/10/15 01:29:47;;;;;;;25.73;3.03;;;;;;;;;;5102472;28;20054;-41
2023/10/15 01:32:25;;;;;;;22.05;3.70;;;;;;;;;;5110728;28;20039;-42
2023/10/15 01:34:53;;;;;;;23.20;2.97;;;;;;;;;;5106768;28;20050;-42
2023/10/15 01:39:48;;;;;;;26.40;3.47;;;;;;;;;;5107568;28;20032;-42
2023/10/15 01:45:16;;;;;;;19.95;3.10;;;;;;;;;;5110829;28;20036;-42
2023/10/15 01:50:23;;;;;;;15.55;3.00;;;;;;;;;;5111037;28;20042;-42
2023/10/15 01:53:01;;;;;;;13.45;2.88;;;;;;;;;;5110092;28;20023;-42
2023/10/15 01:55:29;;;;;;;14.63;2.95;;;;;;;;;;5110649;28;20036;-43
2023/10/15 01:58:03;;;;;;;14.65;3.15;;;;;;;;;;5110568;28;20039;-43
2023/10/15 02:00:34;;;;;;;23.05;2.83;;;;;;;;;;5108225;28;20036;-39
2023/10/15 02:03:01;;;;;;;14.95;2.55;;;;;;;;;;5110745;28;20136;-38
2023/10/15 02:05:41;;;;;;;19.02;2.72;;;;;;;;;;5108922;28;20032;-42
2023/10/15 02:08:24;;;;;;;20.60;2.72;;;;;;;;;;5110784;28;20039;-38
2023/10/15 02:10:52;;;;;;;16.95;2.63;;;;;;;;;;5098986;28;20398;-40
2023/10/15 02:13:22;;;;;;;12.00;2.20;;;;;;;;;;5084196;28;20042;-41
2023/10/15 02:15:50;;;;;;;15.52;2.75;;;;;;;;;;5110544;28;20047;-39
2023/10/15 02:18:20;;;;;;;10.40;2.30;;;;;;;;;;5105183;28;20024;-39
2023/10/15 02:21:00;;;;;;;12.77;2.40;;;;;;;;;;5091185;28;20039;-38
2023/10/15 02:23:28;;;;;;;13.07;2.55;;;;;;;;;;5110866;28;20076;-38
2023/10/15 02:26:01;;;;;;;15.18;2.55;;;;;;;;;;5110578;28;20036;-39
2023/10/15 02:28:31;;;;;;;10.52;2.35;;;;;;;;;;5111172;28;20501;-41
2023/10/15 02:33:32;;;;;;;8.52;2.20;;;;;;;;;;5098353;28;20039;-40
2023/10/15 02:36:00;;;;;;;11.02;1.77;;;;;;;;;;5110122;28;20039;-38
2023/10/15 02:38:52;;;;;;;15.88;1.80;;;;;;;;;;5111413;28;20382;-40
2023/10/15 02:41:17;;;;;;;14.70;2.45;;;;;;;;;;5110433;28;20031;-38
2023/10/15 02:43:56;;;;;;;11.18;1.80;;;;;;;;;;5111158;28;20024;-40
2023/10/15 02:46:36;;;;;;;10.05;1.77;;;;;;;;;;5105992;28;20054;-40
2023/10/15 02:49:07;;;;;;;15.73;2.08;;;;;;;;;;5110906;28;20031;-40
2023/10/15 02:51:37;;;;;;;12.15;1.75;;;;;;;;;;5110851;28;20063;-38
2023/10/15 02:54:27;;;;;;;9.50;1.83;;;;;;;;;;5110347;28;20041;-38
2023/10/15 02:56:59;;;;;;;12.23;2.08;;;;;;;;;;5107708;28;20035;-39
2023/10/15 02:59:30;;;;;;;7.72;1.63;;;;;;;;;;5110839;28;20110;-39
2023/10/15 03:01:57;;;;;;;11.38;1.80;;;;;;;;;;5110214;28;20035;-38
2023/10/15 03:04:34;;;;;;;14.63;2.05;;;;;;;;;;5091188;28;20389;-39
2023/10/15 03:07:46;;;;;;;17.38;2.05;;;;;;;;;;5114327;28;20066;-40
2023/10/15 03:09:51;;;;;;;10.70;1.80;;;;;;;;;;5100956;28;20118;-43
2023/10/15 03:12:18;;;;;;;12.07;1.92;;;;;;;;;;5085844;28;20076;-41
2023/10/15 03:14:46;;;;;;;11.90;1.98;;;;;;;;;;5103380;28;20031;-49
2023/10/15 03:17:24;;;;;;;11.25;1.88;;;;;;;;;;5109432;28;20035;-44
2023/10/15 03:19:55;;;;;;;12.15;1.50;;;;;;;;;;5114752;28;20184;-47
2023/10/15 03:22:25;;;;;;;10.02;1.17;;;;;;;;;;5115027;28;20059;-43
2023/10/15 03:24:56;;;;;;;8.23;1.40;;;;;;;;;;5108418;28;20389;-40
2023/10/15 03:27:26;;;;;;;11.02;1.80;;;;;;;;;;5114531;28;20091;-42
2023/10/15 03:29:56;;;;;;;10.70;1.85;;;;;;;;;;5114636;28;20034;-40
2023/10/15 03:32:31;;;;;;;6.85;1.10;;;;;;;;;;5115026;28;20122;-38
2023/10/15 03:35:16;;;;;;;7.50;1.27;;;;;;;;;;5096410;28;20058;-38
2023/10/15 03:37:46;;;;;;;7.65;1.50;;;;;;;;;;5114585;28;20108;-40
2023/10/15 03:40:30;;;;;;;14.40;2.00;;;;;;;;;;5114618;28;20049;-40
2023/10/15 03:43:06;;;;;;;15.63;1.63;;;;;;;;;;5114508;28;20032;-42
2023/10/15 03:45:50;;;;;;;11.45;1.42;;;;;;;;;;5114743;28;20047;-44
2023/10/15 03:48:29;;;;;;;4.38;1.13;;;;;;;;;;5104990;28;20039;-43
2023/10/15 03:50:59;;;;;;;14.52;2.00;;;;;;;;;;5104278;28;20024;-44
2023/10/15 03:53:32;;;;;;;7.50;1.38;;;;;;;;;;5096773;28;20040;-41
2023/10/15 03:56:01;;;;;;;9.30;1.30;;;;;;;;;;5093699;28;20520;-41
2023/10/15 03:58:28;;;;;;;4.65;1.27;;;;;;;;;;5093994;28;20089;-43
2023/10/15 04:01:17;;;;;;;6.15;1.20;;;;;;;;;;5093918;28;20036;-46
2023/10/15 04:03:47;;;;;;;13.18;1.52;;;;;;;;;;5093940;28;20028;-42
2023/10/15 04:06:14;;;;;;;8.73;1.27;;;;;;;;;;5093786;28;20039;-44
2023/10/15 04:09:27;;;;;;;4.90;1.05;;;;;;;;;;5093819;28;20085;-46
2023/10/15 04:11:30;;;;;;;5.53;1.20;;;;;;;;;;5079027;28;20036;-46
2023/10/15 04:14:08;;;;;;;10.02;1.42;;;;;;;;;;5099148;28;20108;-44
2023/10/15 04:16:35;;;;;;;8.25;1.30;;;;;;;;;;5101604;28;20055;-41
2023/10/15 04:19:02;;;;;;;4.53;1.15;;;;;;;;;;5093678;28;20052;-43
2023/10/15 04:21:29;;;;;;;4.63;1.00;;;;;;;;;;5093716;28;20051;-42
2023/10/15 04:23:57;;;;;;;10.85;1.60;;;;;;;;;;5093480;28;20150;-41
2023/10/15 04:26:28;;;;;;;6.07;1.30;;;;;;;;;;5093025;28;20059;-45
2023/10/15 04:28:56;;;;;;;5.32;1.30;;;;;;;;;;5093382;28;20105;-43
2023/10/15 04:31:23;;;;;;;10.85;1.70;;;;;;;;;;5093234;28;20031;-43
2023/10/15 04:33:51;;;;;;;7.07;1.15;;;;;;;;;;5093401;28;20056;-42
2023/10/15 04:36:18;;;;;;;8.18;1.33;;;;;;;;;;5093000;28;20775;-43
2023/10/15 04:38:45;;;;;;;9.25;1.23;;;;;;;;;;5093175;28;20371;-44
2023/10/15 04:41:21;;;;;;;8.02;1.23;;;;;;;;;;5093224;28;20028;-47
2023/10/15 04:43:48;;;;;;;4.78;1.00;;;;;;;;;;5093015;28;20475;-47
2023/10/15 04:46:17;;;;;;;5.50;1.40;;;;;;;;;;5092684;28;20062;-47
2023/10/15 04:48:50;;;;;;;3.67;1.08;;;;;;;;;;5092655;28;20585;-45
2023/10/15 04:51:18;;;;;;;7.22;1.05;;;;;;;;;;5101085;28;20031;-44
2023/10/15 04:53:48;;;;;;;8.77;1.45;;;;;;;;;;5101539;28;20032;-50
2023/10/15 04:56:18;;;;;;;4.97;1.13;;;;;;;;;;5102382;28;20561;-50
2023/10/15 04:58:45;;;;;;;5.43;1.10;;;;;;;;;;5092842;28;20028;-41
2023/10/15 05:01:12;;;;;;;7.07;1.17;;;;;;;;;;5092666;28;20059;-43
2023/10/15 05:03:39;;;;;;;4.80;0.95;;;;;;;;;;5102271;28;20024;-43
2023/10/15 05:06:13;;;;;;;6.65;0.93;;;;;;;;;;5101157;28;20032;-45
2023/10/15 05:08:40;;;;;;;5.75;1.17;;;;;;;;;;5092376;28;20486;-45
2023/10/15 05:11:09;;;;;;;3.47;1.10;;;;;;;;;;5100273;28;20043;-43
2023/10/15 05:13:36;;;;;;;3.30;1.10;;;;;;;;;;5101262;28;20020;-45
2023/10/15 05:16:04;;;;;;;6.68;1.40;;;;;;;;;;5093680;28;20047;-46
2023/10/15 05:18:32;;;;;;;6.75;1.38;;;;;;;;;;5102298;28;20035;-46
2023/10/15 05:21:00;;;;;;;4.82;1.17;;;;;;;;;;5094259;28;20042;-43
2023/10/15 05:23:28;;;;;;;3.17;0.93;;;;;;;;;;5112483;28;20734;-41
2023/10/15 05:25:56;;;;;;;3.72;1.30;;;;;;;;;;5112170;28;20031;-45
2023/10/15 05:28:23;;;;;;;7.90;1.17;;;;;;;;;;5109928;28;20437;-40
2023/10/15 05:30:50;;;;;;;3.75;1.27;;;;;;;;;;5105520;28;20082;-40
2023/10/15 05:33:17;;;;;;;3.15;1.05;;;;;;;;;;5101163;28;20027;-40
2023/10/15 05:35:49;;;;;;;4.47;1.33;;;;;;;;;;5084230;28;20035;-39
2023/10/15 05:38:19;;;;;;;3.88;1.02;;;;;;;;;;5102236;28;20040;-40
2023/10/15 05:40:46;;;;;;;8.00;1.30;;;;;;;;;;5100641;28;20390;-39
2023/10/15 05:43:14;;;;;;;4.47;1.30;;;;;;;;;;5109464;28;20051;-40
2023/10/15 05:45:41;;;;;;;2.95;1.10;;;;;;;;;;5112248;28;20028;-40
2023/10/15 05:48:08;;;;;;;3.95;1.20;;;;;;;;;;5112405;28;20027;-40
2023/10/15 05:50:35;;;;;;;9.05;1.08;;;;;;;;;;5112455;28;20366;-40
2023/10/15 05:53:02;;;;;;;4.00;1.20;;;;;;;;;;5112261;28;20027;-40
2023/10/15 05:55:29;;;;;;;3.83;1.00;;;;;;;;;;5112125;28;20028;-40
2023/10/15 05:57:58;;;;;;;5.05;1.00;;;;;;;;;;5112382;28;20034;-40
2023/10/15 06:00:28;;;;;;;3.45;1.20;;;;;;;;;;5111969;28;20039;-39
2023/10/15 06:02:55;;;;;;;7.57;1.10;;;;;;;;;;5095534;28;20035;-39
2023/10/15 06:05:23;;;;;;;5.75;1.10;;;;;;;;;;5091612;28;20024;-40
2023/10/15 06:07:50;;;;;;;4.43;1.10;;;;;;;;;;5091789;28;20103;-39
2023/10/15 06:10:17;;;;;;;2.17;0.70;;;;;;;;;;5091716;28;20502;-39
2023/10/15 06:12:44;;;;;;;4.13;1.00;;;;;;;;;;5091764;28;20024;-39
2023/10/15 06:15:14;;;;;;;6.53;1.10;;;;;;;;;;5091562;28;20432;-39
2023/10/15 06:17:42;;;;;;;4.75;0.95;;;;;;;;;;5091431;28;20062;-39
2023/10/15 06:20:12;;;;;;;4.28;0.85;;;;;;;;;;5091638;28;20090;-39
2023/10/15 06:22:43;;;;;;;3.25;0.90;;;;;;;;;;5073550;28;20044;-40
2023/10/15 06:25:16;;;;;;;8.00;1.10;;;;;;;;;;5091451;28;20413;-40
2023/10/15 06:27:43;;;;;;;2.40;1.00;;;;;;;;;;5091217;28;20036;-40
2023/10/15 06:30:17;;;;;;;2.85;0.90;;;;;;;;;;5091550;28;20024;-40
2023/10/15 06:32:47;;;;;;;4.30;0.90;;;;;;;;;;5091629;28;20542;-40
2023/10/15 06:35:18;;;;;;;3.47;0.80;;;;;;;;;;5091253;28;20037;-40
2023/10/15 06:37:48;;;;;;;4.45;0.90;;;;;;;;;;5091330;28;20123;-40
2023/10/15 06:40:16;;;;;;;7.38;1.20;;;;;;;;;;5095296;28;20491;-40
2023/10/15 06:42:46;;;;;;;3.45;1.00;;;;;;;;;;5114187;28;20028;-39
2023/10/15 06:45:19;;;;;;;5.57;0.93;;;;;;;;;;5095434;28;20540;-40
2023/10/15 06:47:52;;;;;;;5.53;0.88;;;;;;;;;;5095545;28;20063;-40
2023/10/15 06:50:19;;;;;;;2.92;0.95;;;;;;;;;;5095304;28;20111;-40
2023/10/15 06:52:46;;;;;;;2.90;0.93;;;;;;;;;;5095165;28;20036;-40
2023/10/15 06:55:14;;;;;;;2.78;0.80;;;;;;;;;;5094984;28;20440;-41
2023/10/15 06:57:42;;;;;;;4.30;0.73;;;;;;;;;;5095071;28;20040;-40
2023/10/15 07:00:10;;;;;;;3.85;0.90;;;;;;;;;;5095062;28;20115;-41
2023/10/15 07:02:37;;;;;;;2.40;0.88;;;;;;;;;;5095008;28;20093;-40
2023/10/15 07:05:05;;;;;;;4.97;1.10;;;;;;;;;;5094811;28;20100;-40
2023/10/15 07:07:35;;;;;;;3.03;0.70;;;;;;;;;;5094959;28;20027;-40
2023/10/15 07:10:05;;;;;;;2.47;1.05;;;;;;;;;;5076625;28;20024;-40
2023/10/15 07:12:32;;;;;;;2.58;0.88;;;;;;;;;;5094836;28;20021;-40
2023/10/15 07:14:59;;;;;;;3.92;1.00;;;;;;;;;;5094803;28;20527;-40
2023/10/15 07:17:26;;;;;;;2.45;0.90;;;;;;;;;;5094492;28;20032;-40
2023/10/15 07:19:53;;;;;;;1.98;0.70;;;;;;;;;;5094782;28;20024;-40
2023/10/15 07:22:21;;;;;;;1.05;0.60;;;;;;;;;;5094758;28;20020;-40
2023/10/15 07:24:48;;;;;;;3.63;0.90;;;;;;;;;;5094582;28;20031;-40
2023/10/15 07:27:15;;;;;;;3.13;1.00;;;;;;;;;;5094477;28;20048;-40
2023/10/15 07:29:42;;;;;;;2.10;0.85;;;;;;;;;;5094618;28;20031;-40
2023/10/15 07:32:09;;;;;;;3.50;0.80;;;;;;;;;;5094535;28;20025;-40
2023/10/15 07:34:36;;;;;;;1.52;0.55;;;;;;;;;;5094489;28;20052;-40
2023/10/15 07:37:03;;;;;;;4.82;0.70;;;;;;;;;;5094353;28;20038;-40
2023/10/15 07:39:31;;;;;;;2.28;0.80;;;;;;;;;;5094468;28;20028;-40
2023/10/15 07:41:58;;;;;;;2.65;0.95;;;;;;;;;;5094363;28;20051;-40
2023/10/15 07:44:25;;;;;;;1.85;0.60;;;;;;;;;;5094285;28;20036;-40
2023/10/15 07:46:52;;;;;;;2.25;1.02;;;;;;;;;;5094044;28;20036;-40
2023/10/15 07:49:20;;;;;;;2.47;0.60;;;;;;;;;;5094127;28;20032;-40
2023/10/15 07:51:47;;;;;;;2.22;0.70;;;;;;;;;;5093521;28;20034;-39
2023/10/15 07:54:17;;;;;;;4.47;0.90;;;;;;;;;;5094214;28;20032;-39
2023/10/15 07:56:44;;;;;;;3.78;1.00;;;;;;;;;;5093898;28;20040;-40
2023/10/15 07:59:11;;;;;;;1.83;0.70;;;;;;;;;;5094020;28;20039;-40
2023/10/15 08:01:38;;;;;;;1.75;0.75;;;;;;;;;;5094021;28;20551;-40
2023/10/15 08:04:06;;;;;;;2.63;0.60;;;;;;;;;;5093972;28;20490;-38
2023/10/15 08:06:34;;;;;;;2.83;1.05;;;;;;;;;;5093685;28;20031;-39
2023/10/15 08:09:01;;;;;;;4.22;0.88;;;;;;;;;;5093600;28;20413;-40
2023/10/15 08:11:28;;;;;;;2.72;0.73;;;;;;;;;;5093842;28;20053;-39
2023/10/15 08:13:55;;;;;;;3.38;0.68;;;;;;;;;;5093793;28;20418;-40
2023/10/15 08:16:22;;;;;;;5.28;0.70;;;;;;;;;;5093604;28;20119;-39
2023/10/15 08:18:49;;;;;;;2.63;1.08;;;;;;;;;;5093714;28;20028;-39
2023/10/15 08:21:16;;;;;;;2.40;0.80;;;;;;;;;;5093620;28;20028;-38
2023/10/15 08:23:43;;;;;;;1.90;0.70;;;;;;;;;;5093577;28;20031;-39
2023/10/15 08:26:10;;;;;;;2.85;0.90;;;;;;;;;;5093225;28;20151;-39
2023/10/15 08:28:37;;;;;;;2.47;1.00;;;;;;;;;;5093449;28;20020;-40
2023/10/15 08:31:05;;;;;;;1.13;0.60;;;;;;;;;;5093530;28;20024;-39
2023/10/15 08:33:31;;;;;;;1.42;0.70;;;;;;;;;;5093192;28;20028;-40
2023/10/15 08:36:02;;;;;;;2.05;0.60;;;;;;;;;;5093157;28;20044;-40
2023/10/15 08:38:29;;;;;;;1.33;0.60;;;;;;;;;;5093271;28;20590;-39
2023/10/15 08:40:58;;;;;;;1.27;0.55;;;;;;;;;;5093157;28;20035;-39
2023/10/15 08:43:29;;;;;;;1.65;0.70;;;;;;;;;;5093129;28;20371;-39
2023/10/15 08:46:01;;;;;;;1.30;0.60;;;;;;;;;;5093141;28;20039;-39
2023/10/15 08:48:29;;;;;;;1.75;0.70;;;;;;;;;;5093141;28;20020;-39
2023/10/15 08:50:58;;;;;;;1.83;0.70;;;;;;;;;;5093077;28;20028;-39
2023/10/15 08:53:28;;;;;;;1.92;0.60;;;;;;;;;;5093048;28;20024;-39
2023/10/15 08:55:57;;;;;;;2.15;0.70;;;;;;;;;;5092622;28;20047;-39
2023/10/15 08:58:26;;;;;;;3.45;0.77;;;;;;;;;;5092545;28;20036;-40
2023/10/15 09:00:57;;;;;;;2.30;0.45;;;;;;;;;;5092863;28;20409;-39
2023/10/15 09:03:25;;;;;;;2.67;0.70;;;;;;;;;;5091852;28;20024;-38
2023/10/15 09:05:52;;;;;;;2.97;0.80;;;;;;;;;;5092644;28;20107;-39
2023/10/15 09:08:21;;;;;;;1.73;0.60;;;;;;;;;;5092710;28;20032;-40
2023/10/15 09:10:52;;;;;;;1.98;0.80;;;;;;;;;;5092616;28;20016;-39
2023/10/15 09:13:21;;;;;;;1.35;0.40;;;;;;;;;;5092562;28;20122;-39
2023/10/15 09:15:50;;;;;;;2.90;0.70;;;;;;;;;;5092187;28;20111;-39
2023/10/15 09:18:17;;;;;;;5.20;0.90;;;;;;;;;;5103472;28;20051;-39
2023/10/15 09:20:54;;;;;;;2.30;0.75;;;;;;;;;;5110025;28;20019;-38
2023/10/15 09:23:22;;;;;;;2.00;0.80;;;;;;;;;;5092238;28;20060;-39
2023/10/15 09:25:53;;;;;;;1.80;0.90;;;;;;;;;;5092164;28;20428;-40
2023/10/15 09:28:20;;;;;;;1.88;0.80;;;;;;;;;;5092142;28;20036;-39
2023/10/15 09:30:47;;;;;;;1.85;0.73;;;;;;;;;;5092384;28;20030;-39
2023/10/15 09:33:17;;;;;;;2.25;0.68;;;;;;;;;;5092303;28;20032;-39
2023/10/15 09:35:45;;;;;;;1.23;0.65;;;;;;;;;;5091790;28;20028;-40
2023/10/15 09:38:15;;;;;;;2.22;0.65;;;;;;;;;;5092793;28;20344;-39
2023/10/15 09:40:45;;;;;;;1.80;0.65;;;;;;;;;;5092144;28;20055;-39
2023/10/15 09:43:13;;;;;;;1.40;0.70;;;;;;;;;;5092048;28;20744;-39
2023/10/15 09:45:42;;;;;;;2.22;0.75;;;;;;;;;;5091803;28;20032;-39
2023/10/15 09:48:12;;;;;;;1.55;0.63;;;;;;;;;;5091910;28;20020;-39
2023/10/15 09:50:41;;;;;;;1.50;0.63;;;;;;;;;;5091962;28;20036;-42
2023/10/15 09:53:12;;;;;;;0.75;0.60;;;;;;;;;;5091770;28;20036;-39
2023/10/15 09:55:45;;;;;;;2.55;0.60;;;;;;;;;;5091562;28;20039;-40
2023/10/15 09:58:12;;;;;;;1.27;0.80;;;;;;;;;;5091914;28;20040;-39
2023/10/15 10:03:39;;;;;;;1.98;0.63;;;;;;;;;;5092143;28;20063;-39
2023/10/15 10:06:09;;;;;;;2.53;0.75;;;;;;;;;;5091581;28;20024;-39
2023/10/15 10:08:36;;;;;;;1.58;0.52;;;;;;;;;;5091544;28;20032;-39
2023/10/15 10:11:09;;;;;;;2.75;0.77;;;;;;;;;;5091613;28;20039;-39
2023/10/15 10:13:58;;;;;;;3.00;0.68;;;;;;;;;;5091427;28;20044;-40
2023/10/15 10:16:26;;;;;;;1.25;0.50;;;;;;;;;;5091569;28;20039;-40
2023/10/15 10:18:54;;;;;;;1.92;0.60;;;;;;;;;;5091617;28;20036;-39
2023/10/15 10:21:22;;;;;;;1.95;0.80;;;;;;;;;;5091672;28;20024;-40
2023/10/15 10:23:53;;;;;;;2.78;0.98;;;;;;;;;;5091444;28;20040;-40
2023/10/15 10:26:20;;;;;;;1.48;0.60;;;;;;;;;;5069747;28;20446;-40
2023/10/15 10:28:48;;;;;;;3.00;0.60;;;;;;;;;;5071431;28;20021;-40
2023/10/15 10:31:16;;;;;;;2.80;0.88;;;;;;;;;;5071294;28;20040;-40
2023/10/15 10:33:44;;;;;;;2.25;0.90;;;;;;;;;;5071132;28;20441;-42
2023/10/15 10:36:14;;;;;;;1.20;0.60;;;;;;;;;;5071006;28;20090;-40
2023/10/15 10:38:42;;;;;;;1.70;0.60;;;;;;;;;;5071217;28;20055;-40
2023/10/15 10:41:15;;;;;;;1.20;0.70;;;;;;;;;;5071177;28;20025;-40
2023/10/15 10:43:43;;;;;;;1.60;0.50;;;;;;;;;;5071120;28;20410;-40
2023/10/15 10:46:30;;;;;;;1.17;0.50;;;;;;;;;;5070980;28;20040;-40
2023/10/15 10:49:04;;;;;;;1.90;0.90;;;;;;;;;;5070966;28;20093;-40
2023/10/15 10:51:33;;;;;;;1.65;0.57;;;;;;;;;;5071134;28;20086;-40
2023/10/15 10:54:02;;;;;;;4.13;0.70;;;;;;;;;;5071273;28;20432;-39
2023/10/15 10:56:41;;;;;;;1.77;0.50;;;;;;;;;;5071101;28;20083;-39
2023/10/15 10:59:09;;;;;;;2.00;0.60;;;;;;;;;;5075140;28;20502;-41
2023/10/15 11:01:39;;;;;;;1.52;0.80;;;;;;;;;;5079333;28;20041;-39
2023/10/15 11:04:07;;;;;;;4.93;0.80;;;;;;;;;;5080600;28;20032;-39
2023/10/15 11:06:36;;;;;;;1.45;0.65;;;;;;;;;;5081346;28;20028;-41
2023/10/15 11:09:29;;;;;;;2.30;0.80;;;;;;;;;;5080006;28;20498;-40
2023/10/15 11:11:57;;;;;;;1.20;0.43;;;;;;;;;;5090569;28;20036;-40
2023/10/15 11:14:25;;;;;;;1.58;0.70;;;;;;;;;;5091022;28;20040;-40
2023/10/15 11:16:52;;;;;;;2.60;0.90;;;;;;;;;;5091025;28;20501;-40
2023/10/15 11:19:21;;;;;;;1.65;0.70;;;;;;;;;;5089727;28;20437;-40
2023/10/15 11:21:48;;;;;;;4.88;0.82;;;;;;;;;;5089773;28;20032;-39
2023/10/15 11:24:16;;;;;;;4.50;0.90;;;;;;;;;;5081579;28;20036;-40
2023/10/15 11:26:44;;;;;;;5.35;1.17;;;;;;;;;;5090257;28;20051;-40
2023/10/15 11:29:12;;;;;;;2.97;0.90;;;;;;;;;;5105836;28;20490;-40
2023/10/15 11:31:44;;;;;;;2.17;0.80;;;;;;;;;;5103127;28;20035;-39
2023/10/15 11:34:13;;;;;;;2.92;0.63;;;;;;;;;;5103791;28;20039;-39
2023/10/15 11:36:48;;;;;;;1.38;0.60;;;;;;;;;;5105087;28;20097;-41
2023/10/15 11:39:19;;;;;;;3.85;0.90;;;;;;;;;;5098028;28;20028;-39
2023/10/15 11:42:04;;;;;;;2.80;0.90;;;;;;;;;;5097395;28;20015;-40
2023/10/15 11:44:31;;;;;;;2.30;0.68;;;;;;;;;;5103704;28;20093;-40
2023/10/15 11:47:00;;;;;;;1.67;0.98;;;;;;;;;;5114707;28;20054;-40
2023/10/15 11:49:30;;;;;;;3.53;0.80;;;;;;;;;;5114454;28;20036;-40
2023/10/15 11:51:57;;;;;;;2.78;0.60;;;;;;;;;;5114390;28;20032;-40
2023/10/15 11:54:25;;;;;;;2.38;0.50;;;;;;;;;;5114051;28;20028;-40
2023/10/15 11:56:54;;;;;;;5.03;1.13;;;;;;;;;;5113482;28;20564;-40
2023/10/15 11:59:22;;;;;;;1.45;0.70;;;;;;;;;;5113957;28;20027;-39
2023/10/15 12:01:52;;;;;;;4.40;0.80;;;;;;;;;;5100972;28;20113;-40
2023/10/15 12:04:20;;;;;;;6.30;1.25;;;;;;;;;;5093712;28;20425;-40
2023/10/15 12:06:49;;;;;;;3.70;1.08;;;;;;;;;;5093992;28;20026;-40
2023/10/15 12:09:24;;;;;;;4.15;0.80;;;;;;;;;;5096518;28;20023;-39
2023/10/15 12:11:55;;;;;;;7.80;0.93;;;;;;;;;;5102484;28;20028;-40
2023/10/15 12:14:22;;;;;;;5.57;1.00;;;;;;;;;;5103276;28;20114;-40
2023/10/15 12:16:49;;;;;;;3.83;0.93;;;;;;;;;;5104064;28;20028;-39
2023/10/15 12:19:17;;;;;;;2.55;0.73;;;;;;;;;;5102210;28;20394;-39
2023/10/15 12:21:44;;;;;;;8.93;1.10;;;;;;;;;;5103815;28;20563;-39
2023/10/15 12:24:13;;;;;;;3.65;0.90;;;;;;;;;;5100825;28;20024;-39
2023/10/15 12:26:40;;;;;;;4.00;0.70;;;;;;;;;;5097255;28;20096;-39
2023/10/15 12:29:08;;;;;;;5.13;1.05;;;;;;;;;;5078686;28;20040;-39
2023/10/15 12:31:38;;;;;;;9.55;1.10;;;;;;;;;;5100986;28;20051;-40
2023/10/15 12:34:08;;;;;;;4.60;1.00;;;;;;;;;;5101404;28;20108;-39
2023/10/15 12:36:36;;;;;;;6.70;0.98;;;;;;;;;;5101680;28;20075;-39
2023/10/15 12:39:05;;;;;;;8.82;1.30;;;;;;;;;;5101967;28;20169;-39
2023/10/15 12:41:38;;;;;;;4.10;0.80;;;;;;;;;;5102148;28;20036;-39
2023/10/15 12:44:11;;;;;;;8.48;0.73;;;;;;;;;;5100800;28;20027;-39
2023/10/15 12:46:40;;;;;;;3.80;0.85;;;;;;;;;;5110116;28;20788;-39
2023/10/15 12:49:08;;;;;;;6.35;0.90;;;;;;;;;;5109994;28;20034;-40
2023/10/15 12:51:35;;;;;;;4.43;1.17;;;;;;;;;;5101440;28;20040;-40
2023/10/15 12:54:04;;;;;;;5.97;1.08;;;;;;;;;;5093547;28;20020;-41
2023/10/15 12:56:31;;;;;;;8.00;1.40;;;;;;;;;;5096112;28;20417;-40
2023/10/15 12:58:58;;;;;;;5.18;0.70;;;;;;;;;;5103198;28;20031;-40
2023/10/15 13:01:26;;;;;;;4.85;1.20;;;;;;;;;;5102230;28;20031;-41
2023/10/15 13:03:54;;;;;;;4.78;0.80;;;;;;;;;;5100947;28;20038;-41
2023/10/15 13:06:21;;;;;;;3.13;0.93;;;;;;;;;;5084470;28;20485;-40
2023/10/15 13:08:48;;;;;;;5.18;1.15;;;;;;;;;;5102233;28;20020;-41
2023/10/15 13:11:15;;;;;;;6.45;1.00;;;;;;;;;;5103870;28;20047;-42
2023/10/15 13:13:42;;;;;;;8.82;1.25;;;;;;;;;;5101549;28;20498;-41
2023/10/15 13:16:32;;;;;;;6.57;0.90;;;;;;;;;;5101554;28;20124;-42
2023/10/15 13:18:59;;;;;;;6.90;1.00;;;;;;;;;;5102786;28;20019;-40
2023/10/15 13:21:26;;;;;;;4.53;0.80;;;;;;;;;;5102038;28;20081;-40
2023/10/15 13:23:53;;;;;;;3.75;0.90;;;;;;;;;;5101196;28;20058;-40
2023/10/15 13:26:21;;;;;;;4.05;0.90;;;;;;;;;;5102485;28;20039;-40
2023/10/15 13:28:49;;;;;;;6.72;1.27;;;;;;;;;;5102078;28;20063;-40
2023/10/15 13:31:16;;;;;;;6.53;0.75;;;;;;;;;;5100771;28;21343;-40
2023/10/15 13:33:43;;;;;;;5.32;1.10;;;;;;;;;;5102447;28;20020;-41
2023/10/15 13:36:13;;;;;;;6.07;1.17;;;;;;;;;;5104202;28;20119;-40
2023/10/15 13:38:44;;;;;;;4.85;1.20;;;;;;;;;;5100965;28;20401;-40
2023/10/15 13:41:11;;;;;;;3.30;0.95;;;;;;;;;;5100841;28;20118;-40
2023/10/15 13:43:38;;;;;;;5.57;1.00;;;;;;;;;;5107433;28;20043;-39
2023/10/15 13:46:06;;;;;;;4.57;1.20;;;;;;;;;;5106107;28;20343;-40
2023/10/15 13:48:33;;;;;;;7.45;1.15;;;;;;;;;;5097585;28;20434;-39
2023/10/15 13:51:00;;;;;;;4.55;0.90;;;;;;;;;;5096200;28;20501;-41
2023/10/15 13:53:30;;;;;;;12.25;1.70;;;;;;;;;;5102335;28;20545;-41
2023/10/15 13:55:57;;;;;;;9.55;1.17;;;;;;;;;;5111759;28;20468;-42
2023/10/15 13:58:24;;;;;;;7.70;1.27;;;;;;;;;;5098877;28;20030;-39
2023/10/15 14:00:51;;;;;;;18.63;1.95;;;;;;;;;;5108904;28;20031;-39
2023/10/15 14:03:18;;;;;;;22.05;2.10;;;;;;;;;;5106740;28;20039;-44
2023/10/15 14:05:45;;;;;;;44.65;2.53;;;;;;;;;;5105614;28;20024;-41
2023/10/15 14:08:13;;;;;;;28.75;2.30;;;;;;;;;;5098712;28;20038;-41
2023/10/15 14:10:40;;;;;;;23.85;1.65;;;;;;;;;;5110974;28;20045;-41
2023/10/15 14:13:08;;;;;;;27.08;1.80;;;;;;;;;;5102741;28;20121;-37
2023/10/15 14:15:35;;;;;;;17.38;2.03;;;;;;;;;;5096198;28;20032;-38
2023/10/15 14:18:02;;;;;;;14.00;1.90;;;;;;;;;;5091516;28;20036;-38
2023/10/15 14:20:29;;;;;;;42.83;2.75;;;;;;;;;;5090801;28;20039;-44
2023/10/15 14:22:57;;;;;;;18.98;1.85;;;;;;;;;;5090381;28;20028;-43
2023/10/15 14:25:24;;;;;;;14.35;2.20;;;;;;;;;;5090902;28;20083;-44
2023/10/15 14:27:51;;;;;;;28.02;2.28;;;;;;;;;;5090162;28;20448;-44
2023/10/15 14:30:18;;;;;;;30.58;2.10;;;;;;;;;;5091286;28;20024;-46
2023/10/15 14:32:45;;;;;;;15.73;1.92;;;;;;;;;;5099836;28;20024;-43
2023/10/15 14:35:14;;;;;;;12.55;1.80;;;;;;;;;;5100538;28;20482;-42
2023/10/15 14:37:41;;;;;;;16.20;1.80;;;;;;;;;;5108532;28;20039;-44
2023/10/15 14:40:09;;;;;;;22.75;2.35;;;;;;;;;;5111180;28;20494;-44
2023/10/15 14:42:39;;;;;;;18.25;1.80;;;;;;;;;;5109758;28;20040;-44
2023/10/15 14:45:07;;;;;;;14.73;1.85;;;;;;;;;;5103023;28;20462;-38
2023/10/15 14:47:35;;;;;;;12.65;1.92;;;;;;;;;;5097576;28;20063;-40
2023/10/15 14:50:02;;;;;;;16.40;1.75;;;;;;;;;;5098461;28;21823;-39
2023/10/15 14:52:30;;;;;;;21.00;2.30;;;;;;;;;;5088551;28;20032;-40
2023/10/15 14:54:57;;;;;;;20.13;2.28;;;;;;;;;;5104958;28;20023;-44
2023/10/15 14:57:24;;;;;;;11.43;1.92;;;;;;;;;;5100291;28;20047;-44
2023/10/15 14:59:51;;;;;;;15.35;2.10;;;;;;;;;;5094342;28;20032;-45
2023/10/15 15:02:18;;;;;;;19.77;1.90;;;;;;;;;;5097498;28;20470;-47
2023/10/15 15:04:45;;;;;;;12.18;2.00;;;;;;;;;;5096403;28;20111;-46
2023/10/15 15:07:12;;;;;;;14.93;2.40;;;;;;;;;;5104975;28;20662;-44
2023/10/15 15:09:39;;;;;;;14.50;2.53;;;;;;;;;;5099129;28;20118;-45